Goldfield, Nevada Weather observations

Data are for observation ending at time listed.
 Day   Time    Ave.   Ave.  Ave.  Vector   Max.   Stn.    Total    Solar   Ave.  
  of    of     Air    Rel.  Wind   Wind    Wind   Baro.  Precip.   Rad.    Soil  
Year   Day     Temp.  Hum.  Speed  Dir.    Gust   Pres.                    Temp. 
2015   (PST)    F      %     mph   deg.    mph     mb.     in.     W/m2     F   
------------------------------------------------------------------------------
 238   21:50   75.0    23    2.3   108      5.3   832.8    0.00       0    82.7
 238   22:00   74.7    23    2.2   279      5.0   833.0    0.00       0    82.6
 238   22:10   74.8    24    1.7   273      2.9   833.1    0.00       0    82.5
 238   22:20   74.9    24    2.0   268      4.6   833.1    0.00       0    82.3
 238   22:30   74.5    24    4.5   290      7.0   833.2    0.00       0    82.2
 238   22:40   73.4    30    5.0   298      9.3   833.5    0.00       0    82.1
 238   22:50   71.6    35    3.5   269      6.9   833.7    0.00       0    82.0
 238   23:00   71.5    33    5.4   290      9.1   833.8    0.00       0    81.9
 238   23:10   72.7    32    7.0   332     12.6   834.1    0.00       0    81.8
 238   23:20   72.6    34    3.0   339      6.6   834.1    0.00       0    81.6
 238   23:30   72.2    34    3.1   296      5.7   834.1    0.00       0    81.5
 238   23:40   71.4    34    3.6   292      5.1   834.1    0.00       0    81.4
 238   23:50   70.9    34    2.5   313      4.7   834.1    0.00       0    81.3
 239    0:00   71.5    34    2.6   344      7.0   834.1    0.00       0    81.2
 239    0:10   71.1    34    1.8   215      2.8   834.0    0.00       0    81.1
 239    0:20   69.9    35    1.9   207      2.7   834.0    0.00       0    81.0
 239    0:30   70.2    35    1.8    97      4.1   833.8    0.00       0    80.9
 239    0:40   70.8    35    2.5   117      5.4   833.8    0.00       0    80.8
 239    0:50   71.0    34    2.6   131      4.8   833.9    0.00       0    80.7
 239    1:00   71.0    33    4.2   121      6.5   833.9    0.00       0    80.6
 239    1:10   70.5    34    5.1   122      7.6   833.8    0.00       0    80.4
 239    1:20   70.4    34    5.5   125      7.5   833.8    0.00       0    80.3
 239    1:30   70.6    34    6.1   132      8.6   833.8    0.00       0    80.2
 239    1:40   70.7    36    5.8   141      8.3   833.7    0.00       0    80.1
 239    1:50   70.3    37    5.3   153      8.0   833.7    0.00       0    80.0
 239    2:00   70.1    37    4.0   169      5.7   833.8    0.00       0    79.9
 239    2:10   69.4    38    2.2   183      3.5   833.9    0.00       0    79.7
 239    2:20   68.2    38    2.3   327      5.0   834.0    0.00       0    79.6
 239    2:30   67.0    39    1.6   228      3.7   834.1    0.00       0    79.5
 239    2:40   66.2    40    2.5   105      4.1   834.1    0.00       0    79.3
 239    2:50   65.7    41    1.7    46      4.3   834.1    0.00       0    79.2
 239    3:00   65.5    41    1.8   146      3.5   834.2    0.00       0    79.2
 239    3:10   64.8    42    2.8   121      3.6   834.2    0.00       0    79.0
 239    3:20   64.1    43    3.6   118      4.7   834.2    0.00       0    78.9
 239    3:30   64.3    43    3.3   123      5.0   834.3    0.00       0    78.8
 239    3:40   63.5    43    2.2   127      3.4   834.4    0.00       0    78.7
 239    3:50   63.6    44    2.7   127      4.2   834.5    0.00       0    78.6
 239    4:00   64.1    44    4.1   143      5.3   834.4    0.00       0    78.3
 239    4:10   65.0    43    1.9   137      3.9   834.5    0.00       0    78.2
 239    4:20   63.4    45    1.3   155      2.9   834.5    0.00       0    78.1
 239    4:30   62.5    47    3.6   109      4.5   834.5    0.00       0    78.0
 239    4:40   63.4    47    3.2   139      4.3   834.5    0.00       0    77.9
 239    4:50   65.2    45    5.1   158      6.6   834.7    0.00       0    77.8
 239    5:00   66.3    44    3.8   148      5.8   834.7    0.00       0    77.7
 239    5:10   63.1    45    2.0   353      6.6   834.8    0.00       0    77.5
 239    5:20   61.4    48    2.6   100      5.0   834.7    0.00       3    77.5
 239    5:30   63.6    46    4.8   130      6.6   834.7    0.00       9    77.3
 239    5:40   64.4    44    3.3   120      5.2   834.8    0.00      25    77.2
 239    5:50   64.3    44    1.0   116      2.8   834.9    0.00      54    77.1
 239    6:00   66.1    42    0.4   184      1.8   834.9    0.00      84    77.0
 239    6:10   67.2    42    2.4   130      3.6   835.0    0.00     117    76.9
 239    6:20   68.6    40    2.6   112      3.7   835.1    0.00     149    76.8
 239    6:30   69.3    40    2.5   108      3.7   835.1    0.00     185    76.7
 239    6:40   71.6    38    1.9    90      2.9   835.2    0.00     220    76.7
 239    6:50   73.9    36    1.5    92      2.3   835.2    0.00     255    76.6
 239    7:00   76.1    34    0.7   341      1.9   835.1    0.00     300    76.6
 239    7:10   78.2    32    1.2     0      3.3   835.1    0.00     332    76.5
 239    7:20   76.1    34    2.8   347      5.8   835.0    0.00     368    76.4
 239    7:30   74.3    33    5.0   325      7.6   835.1    0.00     407    76.4
 239    7:40   73.7    33    4.5   324      6.6   835.2    0.00     443    76.5
 239    7:50   74.3    34    4.9   331      8.1   835.2    0.00     478    76.5
 239    8:00   74.1    34    5.5   320      8.3   835.3    0.00     514    76.6
 239    8:10   74.6    33    4.9   330      7.6   835.2    0.00     543    76.7
 239    8:20   75.3    30    3.9   345      6.7   835.3    0.00     573    76.9
 239    8:30   76.1    27    3.9   349      6.7   835.2    0.00     604    77.1
 239    8:40   76.3    26    4.8   331      7.5   835.2    0.00     636    77.3
 239    8:50   76.8    26    4.6   323      8.9   835.2    0.00     663    77.5
 239    9:00   77.9    24    4.3   319      7.5   835.2    0.00     690    77.8
 239    9:10   78.6    24    3.8   319      7.2   835.2    0.00     720    78.1
 239    9:20   79.5    25    3.0   316      6.6   835.2    0.00     744    78.4
 239    9:30   80.0    25    3.6   323      7.2   835.2    0.00     771    78.7
 239    9:40   80.0    26    2.7   272      6.1   835.1    0.00     787    79.0
 239    9:50   81.4    25    3.9   344      7.8   835.0    0.00     810    79.4
 239   10:00   81.7    25    2.3    31      4.5   835.0    0.00     829    79.7
 239   10:10   82.0    25    4.1    29      7.8   834.9    0.00     849    80.1
 239   10:20   82.5    25    2.3    58      6.4   834.9    0.00     861    80.6
 239   10:30   84.2    24    2.1   348      4.7   834.7    0.00     880    81.1
 239   10:40   84.3    25    3.1   331      7.3   834.5    0.00     891    81.6
 239   10:50   84.1    24    3.1    41      9.4   834.4    0.00     907    82.1
 239   11:00   84.6    24    6.2    64     11.5   834.2    0.00     925    82.6
 239   11:10   84.7    23    7.2    94     13.3   834.1    0.00     943    83.1
 239   11:20   84.3    23    5.8   111     11.5   834.0    0.00     873    83.7
 239   11:30   85.0    22    7.6    86     15.6   833.9    0.00     729    84.0
 239   11:40   85.5    21    6.6    83     14.5   833.7    0.00    1010    84.4
 239   11:50   85.9    21    6.2   151     13.6   833.7    0.00    1012    84.8
 239   12:00   85.7    20    5.9   161     14.0   833.6    0.00     621    85.1
 239   12:10   86.1    20    7.0   167     16.1   833.4    0.00     932    85.6
 239   12:20   86.2    20    6.7   135     12.6   833.3    0.00     777    86.0
 239   12:30   85.3    20    6.1   177     10.8   833.3    0.00     726    86.3
 239   12:40   86.4    19    2.6    74      6.9   833.1    0.00    1026    86.6
 239   12:50   87.5    19    8.4   152     16.4   833.0    0.00    1015    86.9
 239   13:00   86.9    20    5.0   143     12.9   832.9    0.00     706    87.0
 239   13:10   86.5    20    7.6    94     15.0   832.7    0.00     937    87.2
 239   13:20   87.3    20    7.1   118     14.9   832.7    0.00     901    87.4
 239   13:30   86.5    20    6.6   114     16.8   832.5    0.00     913    87.4
 239   13:40   87.6    20    8.4   131     15.2   832.4    0.00     916    87.5
 239   13:50   88.5    19    7.6   155     13.2   832.2    0.00     926    87.6
 239   14:00   86.6    20    5.5   112     11.5   832.0    0.00     528    87.5
 239   14:10   87.2    20   10.3   114     19.2   831.9    0.00     740    87.6
 239   14:20   86.9    20   11.6   110     18.9   831.8    0.00     462    87.6
 239   14:30   86.9    20    9.3   104     17.2   831.7    0.00     629    87.6
 239   14:40   86.1    21    8.2    85     15.9   831.6    0.00     492    87.6
 239   14:50   86.6    20    7.3   119     14.5   831.6    0.00     719    87.6
 239   15:00   87.6    19    9.5   154     17.7   831.4    0.00     660    87.5
 239   15:10   87.3    19    8.8   112     15.8   831.3    0.00     630    87.5
 239   15:20   87.1    18   10.4    96     16.7   831.2    0.00     590    87.5
 239   15:30   87.4    18    9.0   130     17.7   831.2    0.00     564    87.6
 239   15:40   87.4    17    7.8   127     15.0   831.0    0.00     531    87.6
 239   15:50   88.1    17    5.2   111     15.6   831.0    0.00     494    87.6
 239   16:00   87.1    18    8.9   115     15.6   830.9    0.00     465    87.5
 239   16:10   87.4    17    5.2   101      8.8   830.8    0.00     430    87.6
 239   16:20   87.7    17    7.6   120     12.5   830.7    0.00     369    87.5
 239   16:30   87.8    16    6.7    94     13.7   830.7    0.00     358    87.6
 239   16:40   88.0    15    8.6   115     12.8   830.6    0.00     232    87.4
 239   16:50   86.4    16    6.8   128     13.1   830.6    0.00      52    87.5
 239   17:00   85.7    16    7.6    99     14.2   830.7    0.00      61    87.6
 239   17:10   85.4    16    5.9   111     10.2   830.7    0.00      48    87.4
 239   17:20   85.0    15    5.9   148     10.2   830.7    0.00      34    87.3
 239   17:30   84.7    16    5.0   177      7.4   830.7    0.00      28    87.2
 239   17:40   84.5    16    5.8   165      8.6   830.7    0.00      29    87.2
 239   17:50   84.3    16    5.0   166      7.5   830.8    0.00      28    86.9
 239   18:00   84.0    16    6.2   164      8.4   830.7    0.00      23    86.9
 239   18:10   83.7    17    5.4   161      8.6   830.8    0.00      16    86.7
 239   18:20   83.0    18    3.2   156      5.8   830.8    0.00       9    86.6
 239   18:30   81.7    18    4.1   182      5.9   830.8    0.00       4    86.5
 239   18:40   80.5    18    5.0   189      6.6   830.9    0.00       1    86.3
 239   18:50   80.5    18    5.5   194      7.7   831.0    0.00       0    86.2
 239   19:00   80.4    18    5.7   204      7.7   831.1    0.00       0    85.9
 239   19:10   79.8    18    5.8   201      7.7   831.2    0.00       0    85.9
 239   19:20   79.2    19    6.1   203      7.7   831.3    0.00       0    85.7
 239   19:30   78.9    20    6.3   204      8.8   831.4    0.00       0    85.6
 239   19:40   78.7    20    6.3   219      9.6   831.6    0.00       0    85.4
 239   19:50   78.0    20    4.5   213      6.9   831.8    0.00       0    85.2
 239   20:00   77.3    21    2.4     9      5.5   831.9    0.00       0    85.1
 239   20:10   75.8    21    5.4    44      9.0   832.1    0.00       0    84.9
 239   20:20   76.9    21    4.9    74      7.2   832.3    0.00       0    84.8
 239   20:30   77.0    23    1.9   140      5.2   832.4    0.00       0    84.6
 239   20:40   77.2    25    3.5    80      7.1   832.5    0.00       0    84.5
 239   20:50   78.0    27    7.4    80     12.3   832.4    0.00       0    84.3
 239   21:00   77.9    27    8.7    79     14.5   832.3    0.00       0    84.2
 239   21:10   77.5    27    9.2    85     12.5   832.2    0.00       0    84.0
 239   21:20   77.0    27    8.6    88     12.9   832.3    0.00       0    83.8
 239   21:30   76.4    28    6.9    99     11.5   832.3    0.00       0    83.7
 239   21:40   75.4    29    6.6   106     10.6   832.3    0.00       0    83.6

Return to Goldfield, Nevada graphs page.


Western Regional Climate Center,wrcc@dri.edu